Terminal Aerodrome Forecast
Issued by NWS Sioux Falls, SD

Home | Current Version | Previous Version | Graphics & Text | Print | Product List | Glossary Off
Versions: 1 2 3 4 5 6 7 8 9 10 11 12 13 14 15 16 17 18 19 20 21 22 23 24 25

000
FTUS43 KFSD 280520
TAFFSD
TAF
KFSD 280520Z 2806/2906 19004KT P6SM SKC
     FM281000 28006KT P6SM SCT080
     FM281300 01008KT P6SM SCT015 BKN060
     FM281600 04008KT P6SM OVC015
      TEMPO 2819/2823 6SM -SHSN
     FM290200 04011KT P6SM SCT015 OVC060=

USA.gov is the U.S. government's official web portal to all federal, state and local government web resources and services.